PWSweather.com
Personal Weather Stations
Station Observations
CW4114
Near Downtown, Rogers City, MI 49779

Near DowntownRogers City, MI 49779

Lat: 45.417443, Lon: -83.810642

Elevation: 605

Station Type: Davis Vantage Pro2 w/Solar

Latest ConditionsUpdated 1:40:32 AM EDT Saturday, May 23, 2015
Currently Today's Max Today's Min Today's Average
Temperature 34.2°F1.2°C 37.0°F2.8°C 34.2°F1.2°C 35.5°F1.9°C
Dew Point 29.5°F-1.4°C 31.3°F-0.4°C 29.5°F-1.4°C 30.3°F-0.9°C
Winds 0.9 mph WSW1.4 kmh WSW 0.9 mph WSW1.4 kmh WSW - 0.8 mph 1.3 kmh
Wind Gusts 2.0 mph3.2 kmh 2.9 mph4.7 kmh - -
Humidity 83% 84% 79% 81%
Pressure 30.30 in1026.1 mb 30.30 in1026.1 mb 30.30 in1026.1 mb -
Hour Temp Dew Point Humidity Winds Wind Gusts Pressure Precip Precip Rate Daily Precip Total
01:40 AM 34.2°F1.2°C 29.5°F-1.4°C 83% 0.9 mph WSW1.4 kmh WSW 2.0 mph3.2 kmh 30.30 in1026.1 mb 0.00 in0.0 mm 0.00 in0.0 mm 0.00 in0.0 mm
01:35 AM 34.2°F1.2°C 29.5°F-1.4°C 83% 0.9 mph WSW1.4 kmh WSW 2.0 mph3.2 kmh 30.30 in1026.1 mb 0.00 in0.0 mm 0.00 in0.0 mm 0.00 in0.0 mm
01:30 AM 34.3°F1.3°C 30.0°F-1.1°C 84% 0.9 mph SW1.4 kmh SW 2.0 mph3.2 kmh 30.30 in1026.1 mb 0.00 in0.0 mm 0.00 in0.0 mm 0.00 in0.0 mm
01:25 AM 34.3°F1.3°C 29.7°F-1.3°C 83% 0.9 mph WSW1.4 kmh WSW 2.9 mph4.7 kmh 30.30 in1026.1 mb 0.00 in0.0 mm 0.00 in0.0 mm 0.00 in0.0 mm
01:20 AM 34.3°F1.3°C 29.7°F-1.3°C 83% 0.9 mph SW1.4 kmh SW 2.0 mph3.2 kmh 30.30 in1026.1 mb 0.00 in0.0 mm 0.00 in0.0 mm 0.00 in0.0 mm
01:15 AM 34.3°F1.3°C 29.5°F-1.4°C 82% 0.9 mph SW1.4 kmh SW 2.0 mph3.2 kmh 30.30 in1026.1 mb 0.00 in0.0 mm 0.00 in0.0 mm 0.00 in0.0 mm
01:10 AM 34.5°F1.4°C 29.7°F-1.3°C 82% 0.9 mph SW1.4 kmh SW 2.0 mph3.2 kmh 30.30 in1026.1 mb 0.00 in0.0 mm 0.00 in0.0 mm 0.00 in0.0 mm
01:05 AM 34.9°F1.6°C 30.0°F-1.1°C 82% 0.9 mph SW1.4 kmh SW 2.0 mph3.2 kmh 30.30 in1026.1 mb 0.00 in0.0 mm 0.00 in0.0 mm 0.00 in0.0 mm
01:00 AM 35.1°F1.7°C 30.2°F-1.0°C 82% 0.9 mph SW1.4 kmh SW 2.0 mph3.2 kmh 30.30 in1026.1 mb 0.00 in0.0 mm 0.00 in0.0 mm 0.00 in0.0 mm
12:55 AM 35.2°F1.8°C 30.0°F-1.1°C 81% 0.9 mph WSW1.4 kmh WSW 0.9 mph1.4 kmh 30.30 in1026.1 mb 0.00 in0.0 mm 0.00 in0.0 mm 0.00 in0.0 mm
12:50 AM 35.4°F1.9°C 30.2°F-1.0°C 81% 0.9 mph WSW1.4 kmh WSW 0.9 mph1.4 kmh 30.30 in1026.1 mb 0.00 in0.0 mm 0.00 in0.0 mm 0.00 in0.0 mm
12:45 AM 35.8°F2.1°C 30.6°F-0.8°C 81% 0.9 mph WSW1.4 kmh WSW 2.0 mph3.2 kmh 30.30 in1026.1 mb 0.00 in0.0 mm 0.00 in0.0 mm 0.00 in0.0 mm
12:40 AM 36.0°F2.2°C 30.7°F-0.7°C 81% 0.9 mph WSW1.4 kmh WSW 0.9 mph1.4 kmh 30.30 in1026.1 mb 0.00 in0.0 mm 0.00 in0.0 mm 0.00 in0.0 mm
12:35 AM 36.0°F2.2°C 30.7°F-0.7°C 81% 0.9 mph WSW1.4 kmh WSW 0.9 mph1.4 kmh 30.30 in1026.1 mb 0.00 in0.0 mm 0.00 in0.0 mm 0.00 in0.0 mm
12:30 AM 36.1°F2.3°C 30.6°F-0.8°C 80% 0.9 mph WSW1.4 kmh WSW 2.0 mph3.2 kmh 30.30 in1026.1 mb 0.00 in0.0 mm 0.00 in0.0 mm 0.00 in0.0 mm
12:25 AM 36.5°F2.5°C 30.9°F-0.6°C 80% 0.9 mph WSW1.4 kmh WSW 2.0 mph3.2 kmh 30.30 in1026.1 mb 0.00 in0.0 mm 0.00 in0.0 mm 0.00 in0.0 mm
12:20 AM 36.7°F2.6°C 31.1°F-0.5°C 80% Calm Calm 2.0 mph3.2 kmh 30.30 in1026.1 mb 0.00 in0.0 mm 0.00 in0.0 mm 0.00 in0.0 mm
12:15 AM 36.7°F2.6°C 31.1°F-0.5°C 80% Calm Calm -- 30.30 in1026.1 mb 0.00 in0.0 mm 0.00 in0.0 mm 0.00 in0.0 mm
12:10 AM 36.9°F2.7°C 31.3°F-0.4°C 80% 0.9 mph E1.4 kmh E 2.0 mph3.2 kmh 30.30 in1026.1 mb 0.00 in0.0 mm 0.00 in0.0 mm 0.00 in0.0 mm
12:05 AM 37.0°F2.8°C 31.1°F-0.5°C 79% 0.9 mph WSW1.4 kmh WSW 0.9 mph1.4 kmh 30.30 in1026.1 mb 0.00 in0.0 mm 0.00 in0.0 mm 0.00 in0.0 mm
12:00 AM 37.0°F2.8°C 31.1°F-0.5°C 79% 0.9 mph WSW1.4 kmh WSW 2.0 mph3.2 kmh 30.30 in1026.1 mb 0.00 in0.0 mm 0.00 in0.0 mm 0.00 in0.0 mm